createdAt,value
2023-02-02T00:00:22.253Z,3.20
2023-02-02T00:03:44.663Z,2.40
2023-02-02T00:06:47.516Z,2.97
2023-02-02T00:09:49.788Z,3.03
2023-02-02T00:12:52.105Z,2.83
2023-02-02T00:15:54.318Z,2.77
2023-02-02T00:18:58.877Z,2.50
2023-02-02T00:22:02.390Z,2.13
2023-02-02T00:25:05.605Z,2.90
2023-02-02T00:28:07.616Z,2.70
2023-02-02T00:31:10.252Z,2.53
2023-02-02T00:34:13.904Z,2.63
2023-02-02T00:37:16.173Z,2.87
2023-02-02T00:40:18.473Z,2.87
2023-02-02T00:43:20.777Z,2.70
2023-02-02T00:46:22.929Z,2.73
2023-02-02T00:49:25.291Z,2.47
2023-02-02T00:52:27.317Z,3.07
2023-02-02T00:55:29.745Z,2.80
2023-02-02T00:58:33.118Z,2.63
2023-02-02T01:01:35.641Z,2.73
2023-02-02T01:04:37.874Z,5.57
2023-02-02T01:07:40.832Z,2.37
2023-02-02T01:10:42.852Z,1.90
2023-02-02T01:13:45.295Z,2.70
2023-02-02T01:16:47.830Z,2.70
2023-02-02T01:19:50.098Z,2.23
2023-02-02T01:22:52.592Z,2.30
2023-02-02T01:26:00.299Z,2.40
2023-02-02T01:29:02.817Z,2.60
2023-02-02T01:32:05.432Z,1.93
2023-02-02T01:35:07.899Z,2.30
2023-02-02T01:38:10.155Z,2.30
2023-02-02T01:41:18.035Z,2.03
2023-02-02T01:44:57.972Z,2.40
2023-02-02T01:48:00.929Z,1.80
2023-02-02T01:51:09.115Z,2.57
2023-02-02T01:54:17.259Z,1.57
2023-02-02T01:57:34.987Z,2.37
2023-02-02T02:00:40.072Z,2.53
2023-02-02T02:03:42.521Z,1.90
2023-02-02T02:06:45.487Z,2.00
2023-02-02T02:09:48.153Z,1.90
2023-02-02T02:12:50.417Z,2.13
2023-02-02T02:16:20.843Z,1.80
2023-02-02T02:20:01.776Z,2.07
2023-02-02T02:23:52.040Z,2.20
2023-02-02T02:27:25.912Z,1.40
2023-02-02T02:30:34.087Z,1.60
2023-02-02T02:34:14.686Z,2.17
2023-02-02T02:37:29.027Z,1.87
2023-02-02T02:40:43.046Z,1.87
2023-02-02T02:44:01.261Z,1.80
2023-02-02T02:47:04.065Z,1.87
2023-02-02T02:50:06.837Z,1.90
2023-02-02T02:53:16.180Z,1.73
2023-02-02T02:56:32.177Z,1.60
2023-02-02T02:59:37.568Z,1.60
2023-02-02T03:02:45.843Z,1.27
2023-02-02T03:06:12.630Z,1.73
2023-02-02T03:09:29.974Z,1.53
2023-02-02T03:12:32.053Z,1.77
2023-02-02T03:15:34.600Z,1.73
2023-02-02T03:18:36.988Z,1.97
2023-02-02T03:21:39.247Z,1.63
2023-02-02T03:24:41.232Z,2.30
2023-02-02T03:27:43.867Z,1.23
2023-02-02T03:30:47.336Z,2.23
2023-02-02T03:33:49.622Z,1.40
2023-02-02T03:36:51.568Z,2.03
2023-02-02T03:39:53.900Z,1.57
2023-02-02T03:42:56.280Z,1.63
2023-02-02T03:46:01.006Z,2.07
2023-02-02T03:49:03.080Z,1.80
2023-02-02T03:52:05.693Z,1.70
2023-02-02T03:55:08.172Z,1.60
2023-02-02T03:58:10.684Z,1.60
2023-02-02T04:01:13.825Z,1.73
2023-02-02T04:04:16.260Z,2.10
2023-02-02T04:07:18.235Z,1.50
2023-02-02T04:10:21.753Z,2.50
2023-02-02T04:13:23.713Z,1.43
2023-02-02T04:16:26.136Z,2.47
2023-02-02T04:19:28.153Z,1.60
2023-02-02T04:22:30.447Z,1.60
2023-02-02T04:25:33.219Z,1.70
2023-02-02T04:28:35.636Z,2.03
2023-02-02T04:31:37.825Z,2.13
2023-02-02T04:34:40.295Z,2.13
2023-02-02T04:37:42.319Z,1.53
2023-02-02T04:40:47.139Z,1.47
2023-02-02T04:43:49.319Z,1.47
2023-02-02T04:46:51.601Z,1.30
2023-02-02T04:49:53.604Z,1.23
2023-02-02T04:52:56.325Z,1.17
2023-02-02T04:55:58.977Z,1.10
2023-02-02T04:59:01.303Z,0.83
2023-02-02T05:02:03.545Z,0.73
2023-02-02T05:05:07.206Z,0.90
2023-02-02T05:08:11.976Z,0.70
2023-02-02T05:11:16.854Z,0.80
2023-02-02T05:14:20.285Z,0.90
2023-02-02T05:17:22.560Z,0.67
2023-02-02T05:20:24.554Z,1.20
2023-02-02T05:23:27.458Z,0.90
2023-02-02T05:26:29.846Z,0.60
2023-02-02T05:29:32.307Z,0.80
2023-02-02T05:32:34.269Z,0.90
2023-02-02T05:35:36.566Z,0.80
2023-02-02T05:38:39.175Z,0.80
2023-02-02T05:41:42.000Z,0.70
2023-02-02T05:44:43.990Z,0.80
2023-02-02T05:47:46.262Z,0.60
2023-02-02T05:51:12.321Z,1.00
2023-02-02T05:54:19.320Z,0.83
2023-02-02T05:57:21.451Z,0.80
2023-02-02T06:00:23.727Z,0.97
2023-02-02T06:03:26.008Z,0.60
2023-02-02T06:06:28.285Z,0.60
2023-02-02T06:09:30.304Z,0.67
2023-02-02T06:12:32.669Z,0.77
2023-02-02T06:15:35.773Z,0.50
2023-02-02T06:18:38.269Z,0.80
2023-02-02T06:21:40.287Z,1.00
2023-02-02T06:24:42.524Z,1.00
2023-02-02T06:27:46.275Z,0.83
2023-02-02T06:30:48.608Z,0.70
2023-02-02T06:33:56.239Z,0.70
2023-02-02T06:36:58.579Z,0.60
2023-02-02T06:40:00.944Z,1.00
2023-02-02T06:43:06.094Z,1.10
2023-02-02T06:46:08.108Z,1.00
2023-02-02T06:49:10.428Z,0.80
2023-02-02T06:52:12.549Z,1.00
2023-02-02T06:55:14.868Z,1.10
2023-02-02T06:58:16.961Z,0.90
2023-02-02T07:01:19.367Z,0.90
2023-02-02T07:04:21.868Z,1.13
2023-02-02T07:07:24.124Z,1.10
2023-02-02T07:11:14.414Z,1.10
2023-02-02T07:13:49.880Z,1.10
2023-02-02T07:16:51.910Z,1.10
2023-02-02T07:19:54.178Z,1.20
2023-02-02T07:22:56.293Z,0.70
2023-02-02T07:26:09.789Z,1.10
2023-02-02T07:29:13.996Z,1.13
2023-02-02T07:32:16.228Z,1.13
2023-02-02T07:35:18.539Z,1.10
2023-02-02T07:38:21.520Z,1.27
2023-02-02T07:41:24.078Z,1.20
2023-02-02T07:44:26.599Z,0.97
2023-02-02T07:47:28.633Z,1.03
2023-02-02T07:50:31.812Z,1.00
2023-02-02T07:53:34.422Z,1.60
2023-02-02T07:56:38.915Z,1.77
2023-02-02T07:59:40.923Z,1.00
2023-02-02T08:02:43.298Z,1.40
2023-02-02T08:05:45.456Z,1.60
2023-02-02T08:08:48.959Z,1.60
2023-02-02T08:11:50.917Z,1.70
2023-02-02T08:14:53.221Z,1.50
2023-02-02T08:17:55.336Z,1.50
2023-02-02T08:21:02.476Z,1.63
2023-02-02T08:24:05.220Z,1.30
2023-02-02T08:27:08.274Z,1.37
2023-02-02T08:30:11.041Z,1.20
2023-02-02T08:33:13.681Z,1.40
2023-02-02T08:36:17.604Z,1.40
2023-02-02T08:39:19.989Z,1.47
2023-02-02T08:42:22.235Z,1.60
2023-02-02T08:46:03.973Z,1.80
2023-02-02T08:48:48.258Z,1.57
2023-02-02T08:51:50.523Z,1.77
2023-02-02T08:54:52.510Z,1.70
2023-02-02T08:57:54.781Z,1.70
2023-02-02T09:01:06.052Z,1.83
2023-02-02T09:04:18.181Z,1.70
2023-02-02T09:07:21.257Z,1.70
2023-02-02T09:10:23.848Z,1.90
2023-02-02T09:13:25.815Z,1.33
2023-02-02T09:16:28.742Z,1.63
2023-02-02T09:19:30.787Z,1.50
2023-02-02T09:22:33.528Z,1.70
2023-02-02T09:25:35.558Z,1.53
2023-02-02T09:28:43.072Z,1.47
2023-02-02T09:31:45.431Z,1.67
2023-02-02T09:34:48.186Z,1.50
2023-02-02T09:37:50.318Z,1.43
2023-02-02T09:40:52.673Z,1.70
2023-02-02T09:44:24.885Z,2.10
2023-02-02T09:47:32.901Z,1.63
2023-02-02T09:50:43.750Z,1.63
2023-02-02T09:54:12.881Z,1.60
2023-02-02T09:57:29.155Z,2.10
2023-02-02T10:00:36.521Z,1.80
2023-02-02T10:04:15.834Z,1.63
2023-02-02T10:07:24.913Z,1.90
2023-02-02T10:10:38.077Z,1.60
2023-02-02T10:13:43.668Z,1.60
2023-02-02T10:16:48.245Z,1.37
2023-02-02T10:19:53.996Z,1.17
2023-02-02T10:23:03.976Z,1.50
2023-02-02T10:26:12.779Z,1.70
2023-02-02T10:29:48.184Z,1.73
2023-02-02T10:33:06.711Z,1.30
2023-02-02T10:36:35.311Z,1.13
2023-02-02T10:39:57.669Z,1.00
2023-02-02T10:43:46.238Z,1.40
2023-02-02T10:46:56.585Z,1.00
2023-02-02T10:50:13.704Z,1.10
2023-02-02T10:53:16.923Z,1.30
2023-02-02T10:56:40.399Z,1.37
2023-02-02T10:59:59.504Z,1.30
2023-02-02T11:03:04.702Z,1.63
2023-02-02T11:06:27.289Z,2.70
2023-02-02T11:09:56.191Z,1.80
2023-02-02T11:13:08.068Z,1.57
2023-02-02T11:16:16.383Z,1.50
2023-02-02T11:19:40.338Z,1.60
2023-02-02T11:22:44.277Z,1.00
2023-02-02T11:26:00.060Z,1.30
2023-02-02T11:29:02.126Z,1.30
2023-02-02T11:32:29.897Z,1.20
2023-02-02T11:35:32.158Z,1.10
2023-02-02T11:38:34.446Z,1.07
2023-02-02T11:41:37.599Z,1.20
2023-02-02T11:44:40.481Z,0.97
2023-02-02T11:47:42.677Z,1.10
2023-02-02T11:50:56.527Z,1.03
2023-02-02T11:54:06.609Z,1.30
2023-02-02T11:57:10.461Z,1.43
2023-02-02T12:00:18.020Z,1.43
2023-02-02T12:03:38.174Z,1.13
2023-02-02T12:06:40.995Z,1.53
2023-02-02T12:09:43.312Z,1.10
2023-02-02T12:12:53.832Z,1.43
2023-02-02T12:15:58.855Z,1.33
2023-02-02T12:19:24.283Z,0.50
2023-02-02T12:22:45.329Z,0.80
2023-02-02T12:25:59.290Z,0.60
2023-02-02T12:29:14.632Z,1.17
2023-02-02T12:32:28.326Z,1.37
2023-02-02T12:35:51.884Z,1.20
2023-02-02T12:39:31.906Z,0.90
2023-02-02T12:42:43.203Z,1.57
2023-02-02T12:45:48.281Z,1.60
2023-02-02T12:49:13.840Z,1.43
2023-02-02T12:52:34.043Z,1.70
2023-02-02T12:55:57.818Z,1.77
2023-02-02T12:59:31.725Z,1.80
2023-02-02T13:03:01.016Z,2.00
2023-02-02T13:06:13.044Z,2.40
2023-02-02T13:09:27.773Z,1.80
2023-02-02T13:12:32.570Z,1.90
2023-02-02T13:15:39.177Z,1.30
2023-02-02T13:19:20.284Z,1.30
2023-02-02T13:22:45.159Z,1.50
2023-02-02T13:25:54.991Z,1.10
2023-02-02T13:29:43.940Z,0.90
2023-02-02T13:32:53.233Z,1.03
2023-02-02T13:36:09.718Z,1.20
2023-02-02T13:39:20.488Z,1.30
2023-02-02T13:42:48.041Z,1.17
2023-02-02T13:46:06.317Z,0.97
2023-02-02T13:49:15.079Z,1.70
2023-02-02T13:52:47.758Z,0.93
2023-02-02T13:56:09.513Z,1.10
2023-02-02T13:59:30.776Z,1.10
2023-02-02T14:02:42.182Z,1.10
2023-02-02T14:06:06.442Z,0.97
2023-02-02T14:09:18.577Z,1.60
2023-02-02T14:12:30.743Z,2.17
2023-02-02T14:15:44.920Z,1.47
2023-02-02T14:18:50.905Z,1.70
2023-02-02T14:22:13.195Z,2.17
2023-02-02T14:25:33.763Z,1.40
2023-02-02T14:28:41.741Z,1.20
2023-02-02T14:31:55.188Z,1.43
2023-02-02T14:34:59.340Z,1.47
2023-02-02T14:38:09.325Z,6.10
2023-02-02T14:42:12.634Z,1.20
2023-02-02T14:45:31.910Z,1.40
2023-02-02T14:48:34.771Z,1.60
2023-02-02T14:51:48.625Z,1.60
2023-02-02T14:54:51.848Z,1.60
2023-02-02T14:57:57.474Z,1.57
2023-02-02T15:01:07.719Z,1.40
2023-02-02T15:04:22.140Z,1.80
2023-02-02T15:07:24.171Z,2.23
2023-02-02T15:10:53.652Z,1.83
2023-02-02T15:14:07.089Z,1.50
2023-02-02T15:17:30.790Z,2.93
2023-02-02T15:20:49.331Z,2.23
2023-02-02T15:23:51.803Z,1.53
2023-02-02T15:26:55.746Z,6.40
2023-02-02T15:30:04.406Z,1.80
2023-02-02T15:33:23.368Z,1.90
2023-02-02T15:36:32.421Z,1.53
2023-02-02T15:39:41.724Z,2.23
2023-02-02T15:42:55.701Z,2.60
2023-02-02T15:46:33.485Z,2.30
2023-02-02T15:49:36.436Z,2.00
2023-02-02T15:52:49.185Z,2.70
2023-02-02T15:55:55.102Z,2.80
2023-02-02T15:58:59.926Z,2.20
2023-02-02T16:02:43.163Z,2.30
2023-02-02T16:05:52.039Z,2.67
2023-02-02T16:08:55.199Z,2.60
2023-02-02T16:11:57.669Z,3.00
2023-02-02T16:15:00.520Z,3.00
2023-02-02T16:18:13.393Z,6.93
2023-02-02T16:21:24.215Z,3.20
2023-02-02T16:24:31.476Z,2.47
2023-02-02T16:27:34.743Z,3.07
2023-02-02T16:30:40.189Z,3.00
2023-02-02T16:33:44.928Z,3.23
2023-02-02T16:37:12.671Z,3.13
2023-02-02T16:40:30.660Z,23.23
2023-02-02T16:43:33.276Z,4.73
2023-02-02T16:46:49.587Z,1.40
2023-02-02T16:49:55.219Z,1.47
2023-02-02T16:53:03.113Z,1.60
2023-02-02T16:56:06.514Z,1.87
2023-02-02T16:59:36.280Z,1.57
2023-02-02T17:02:46.011Z,1.60
2023-02-02T17:05:51.946Z,2.07
2023-02-02T17:08:54.025Z,2.23
2023-02-02T17:12:03.172Z,2.80
2023-02-02T17:15:34.881Z,1.93
2023-02-02T17:18:37.585Z,2.03
2023-02-02T17:21:39.715Z,2.50
2023-02-02T17:24:45.274Z,2.20
2023-02-02T17:27:47.684Z,2.30
2023-02-02T17:31:00.612Z,2.73
2023-02-02T17:34:02.918Z,2.60
2023-02-02T17:37:05.279Z,3.30
2023-02-02T17:40:09.445Z,3.63
2023-02-02T17:43:12.896Z,2.70
2023-02-02T17:46:15.196Z,3.47
2023-02-02T17:49:17.614Z,2.80
2023-02-02T17:52:24.183Z,2.30
2023-02-02T17:55:39.867Z,1.70
2023-02-02T17:58:41.931Z,1.60
2023-02-02T18:01:45.677Z,1.83
2023-02-02T18:05:13.820Z,1.80
2023-02-02T18:08:16.496Z,2.37
2023-02-02T18:11:19.747Z,2.50
2023-02-02T18:14:22.119Z,3.20
2023-02-02T18:17:24.135Z,4.30
2023-02-02T18:20:27.736Z,4.17
2023-02-02T18:23:29.831Z,4.60
2023-02-02T18:26:34.487Z,2.90
2023-02-02T18:29:36.984Z,4.00
2023-02-02T18:32:41.432Z,2.77
2023-02-02T18:35:44.477Z,2.80
2023-02-02T18:38:48.588Z,3.53
2023-02-02T18:41:50.897Z,5.73
2023-02-02T18:44:53.687Z,8.23
2023-02-02T18:47:55.667Z,3.03
2023-02-02T18:51:05.075Z,2.87
2023-02-02T18:54:07.133Z,3.47
2023-02-02T18:57:11.346Z,3.77
2023-02-02T19:00:14.061Z,4.60
2023-02-02T19:03:16.497Z,4.50
2023-02-02T19:06:37.660Z,3.40
2023-02-02T19:09:40.282Z,3.50
2023-02-02T19:12:47.973Z,3.43
2023-02-02T19:15:51.167Z,3.00
2023-02-02T19:19:06.960Z,3.63
2023-02-02T19:22:22.396Z,2.90
2023-02-02T19:25:25.232Z,3.07
2023-02-02T19:28:31.034Z,3.00
2023-02-02T19:31:33.150Z,3.27
2023-02-02T19:34:35.574Z,3.30
2023-02-02T19:37:40.059Z,3.47
2023-02-02T19:40:43.700Z,2.27
2023-02-02T19:43:47.860Z,3.10
2023-02-02T19:46:54.293Z,3.07
2023-02-02T19:49:58.932Z,11.00
2023-02-02T19:53:06.440Z,4.03
2023-02-02T19:56:30.477Z,3.57
2023-02-02T19:59:35.562Z,4.60
2023-02-02T20:02:55.531Z,3.40
2023-02-02T20:06:04.014Z,3.80
2023-02-02T20:09:14.905Z,3.73
2023-02-02T20:12:25.524Z,4.33
2023-02-02T20:15:36.366Z,4.27
2023-02-02T20:18:46.491Z,4.93
2023-02-02T20:21:52.139Z,8.37
2023-02-02T20:25:03.696Z,7.93
2023-02-02T20:28:21.928Z,7.73
2023-02-02T20:31:28.764Z,9.53
2023-02-02T20:34:39.769Z,9.63
2023-02-02T20:37:42.647Z,8.93
2023-02-02T20:40:45.353Z,9.10
2023-02-02T20:43:47.724Z,9.83
2023-02-02T20:46:57.201Z,10.00
2023-02-02T20:50:07.020Z,9.70
2023-02-02T20:53:10.907Z,10.13
2023-02-02T20:56:15.348Z,10.53
2023-02-02T20:59:21.140Z,10.03
2023-02-02T21:02:24.911Z,10.00
2023-02-02T21:05:27.179Z,10.93
2023-02-02T21:08:29.436Z,10.87
2023-02-02T21:11:31.829Z,10.83
2023-02-02T21:14:34.548Z,9.17
2023-02-02T21:17:36.955Z,9.53
2023-02-02T21:20:39.213Z,9.30
2023-02-02T21:23:46.431Z,9.17
2023-02-02T21:26:52.124Z,10.37
2023-02-02T21:29:54.579Z,10.63
2023-02-02T21:32:57.353Z,9.70
2023-02-02T21:36:02.798Z,10.00
2023-02-02T21:45:53.471Z,7.77
2023-02-02T21:48:56.154Z,7.67
2023-02-02T21:52:02.138Z,8.07
2023-02-02T21:55:36.226Z,8.07
2023-02-02T21:58:39.741Z,7.87
2023-02-02T22:01:42.697Z,7.57
2023-02-02T22:04:45.101Z,7.07
2023-02-02T22:07:49.706Z,6.67
2023-02-02T22:10:51.794Z,6.30
2023-02-02T22:13:55.675Z,6.27
2023-02-02T22:16:59.072Z,6.33
2023-02-02T22:20:14.541Z,7.13
2023-02-02T22:23:21.304Z,7.30
2023-02-02T22:26:33.228Z,7.67
2023-02-02T22:29:35.612Z,7.83
2023-02-02T22:32:37.950Z,8.70
2023-02-02T22:35:44.578Z,9.37
2023-02-02T22:38:47.540Z,8.67
2023-02-02T22:41:49.585Z,8.67
2023-02-02T22:44:52.009Z,9.03
2023-02-02T22:47:54.541Z,9.07
2023-02-02T22:51:00.158Z,8.80
2023-02-02T22:54:02.179Z,8.97
2023-02-02T22:57:04.601Z,8.77
2023-02-02T23:00:21.920Z,9.70
2023-02-02T23:03:24.229Z,9.53
2023-02-02T23:06:26.266Z,8.50
2023-02-02T23:09:28.517Z,9.03
2023-02-02T23:12:30.783Z,8.87
2023-02-02T23:15:33.456Z,8.03
2023-02-02T23:18:35.533Z,8.43
2023-02-02T23:21:37.871Z,7.60
2023-02-02T23:24:39.880Z,6.63
2023-02-02T23:27:42.580Z,7.87
2023-02-02T23:30:44.738Z,7.70
2023-02-02T23:33:47.059Z,7.90
2023-02-02T23:36:49.158Z,7.20
2023-02-02T23:39:51.420Z,7.20
2023-02-02T23:42:53.423Z,6.97
2023-02-02T23:45:55.798Z,7.03
2023-02-02T23:48:59.892Z,7.17
2023-02-02T23:52:02.700Z,7.17
2023-02-02T23:55:05.787Z,7.03
2023-02-02T23:58:08.755Z,15.97
